sensor_id;sensor_type;location;lat;lon;timestamp;pressure;altitude;pressure_sealevel;temperature;humidity
25722;BME280;13578;53.450;15.496;2023-03-22T00:02:33;99268.03;;;7.67;100.00
25722;BME280;13578;53.450;15.496;2023-03-22T00:05:33;99268.78;;;7.69;100.00
25722;BME280;13578;53.450;15.496;2023-03-22T00:08:34;99264.69;;;7.63;100.00
25722;BME280;13578;53.450;15.496;2023-03-22T00:11:35;99257.84;;;7.69;100.00
25722;BME280;13578;53.450;15.496;2023-03-22T00:14:35;99256.84;;;7.70;100.00
25722;BME280;13578;53.450;15.496;2023-03-22T00:17:36;99257.84;;;7.69;100.00
25722;BME280;13578;53.450;15.496;2023-03-22T00:20:37;99264.31;;;7.68;100.00
25722;BME280;13578;53.450;15.496;2023-03-22T00:23:39;99253.38;;;7.68;100.00
25722;BME280;13578;53.450;15.496;2023-03-22T00:26:40;99249.91;;;7.66;100.00
25722;BME280;13578;53.450;15.496;2023-03-22T00:29:40;99240.47;;;7.70;100.00
25722;BME280;13578;53.450;15.496;2023-03-22T00:32:41;99248.66;;;7.70;100.00
25722;BME280;13578;53.450;15.496;2023-03-22T00:36:09;99258.44;;;7.73;100.00
25722;BME280;13578;53.450;15.496;2023-03-22T00:39:10;99242.16;;;7.71;100.00
25722;BME280;13578;53.450;15.496;2023-03-22T00:42:11;99245.03;;;7.70;100.00
25722;BME280;13578;53.450;15.496;2023-03-22T00:45:12;99237.41;;;7.63;100.00
25722;BME280;13578;53.450;15.496;2023-03-22T00:48:13;99245.97;;;7.59;100.00
25722;BME280;13578;53.450;15.496;2023-03-22T00:51:14;99240.66;;;7.57;100.00
25722;BME280;13578;53.450;15.496;2023-03-22T00:54:16;99246.88;;;7.59;100.00
25722;BME280;13578;53.450;15.496;2023-03-22T00:57:17;99230.72;;;7.56;100.00
25722;BME280;13578;53.450;15.496;2023-03-22T01:00:17;99221.41;;;7.59;100.00
25722;BME280;13578;53.450;15.496;2023-03-22T01:03:18;99229.19;;;7.63;100.00
25722;BME280;13578;53.450;15.496;2023-03-22T01:06:21;99216.53;;;7.62;100.00
25722;BME280;13578;53.450;15.496;2023-03-22T01:09:21;99223.88;;;7.62;100.00
25722;BME280;13578;53.450;15.496;2023-03-22T01:12:23;99237.25;;;7.65;100.00
25722;BME280;13578;53.450;15.496;2023-03-22T01:15:23;99222.88;;;7.63;100.00
25722;BME280;13578;53.450;15.496;2023-03-22T01:18:24;99214.19;;;7.58;100.00
25722;BME280;13578;53.450;15.496;2023-03-22T01:21:25;99210.22;;;7.62;100.00
25722;BME280;13578;53.450;15.496;2023-03-22T01:24:25;99189.78;;;7.56;100.00
25722;BME280;13578;53.450;15.496;2023-03-22T01:27:26;99182.91;;;7.62;100.00
25722;BME280;13578;53.450;15.496;2023-03-22T01:30:27;99177.31;;;7.63;100.00
25722;BME280;13578;53.450;15.496;2023-03-22T01:33:29;99167.97;;;7.66;100.00
25722;BME280;13578;53.450;15.496;2023-03-22T01:36:29;99167.56;;;7.71;100.00
25722;BME280;13578;53.450;15.496;2023-03-22T01:39:30;99172.69;;;7.64;100.00
25722;BME280;13578;53.450;15.496;2023-03-22T01:42:31;99173.44;;;7.66;100.00
25722;BME280;13578;53.450;15.496;2023-03-22T01:45:43;99181.31;;;7.59;100.00
25722;BME280;13578;53.450;15.496;2023-03-22T01:48:46;99172.69;;;7.64;100.00
25722;BME280;13578;53.450;15.496;2023-03-22T01:51:49;99182.38;;;7.68;100.00
25722;BME280;13578;53.450;15.496;2023-03-22T01:54:51;99168.25;;;7.63;100.00
25722;BME280;13578;53.450;15.496;2023-03-22T01:57:53;99153.13;;;7.59;100.00
25722;BME280;13578;53.450;15.496;2023-03-22T02:00:54;99158.44;;;7.60;100.00
25722;BME280;13578;53.450;15.496;2023-03-22T02:04:15;99166.00;;;7.68;100.00
25722;BME280;13578;53.450;15.496;2023-03-22T02:07:20;99136.69;;;7.70;100.00
25722;BME280;13578;53.450;15.496;2023-03-22T02:10:26;99149.91;;;7.75;100.00
25722;BME280;13578;53.450;15.496;2023-03-22T02:13:38;99157.25;;;7.74;100.00
25722;BME280;13578;53.450;15.496;2023-03-22T02:20:28;99158.09;;;7.75;100.00
25722;BME280;13578;53.450;15.496;2023-03-22T02:44:21;99124.56;;;7.63;100.00
25722;BME280;13578;53.450;15.496;2023-03-22T02:47:24;99123.09;;;7.59;100.00
25722;BME280;13578;53.450;15.496;2023-03-22T02:50:48;99111.78;;;7.63;100.00
25722;BME280;13578;53.450;15.496;2023-03-22T02:54:02;99111.78;;;7.63;100.00
25722;BME280;13578;53.450;15.496;2023-03-22T02:57:09;99111.06;;;7.71;100.00
25722;BME280;13578;53.450;15.496;2023-03-22T03:00:13;99102.44;;;7.66;100.00
25722;BME280;13578;53.450;15.496;2023-03-22T03:03:16;99102.72;;;7.63;100.00
25722;BME280;13578;53.450;15.496;2023-03-22T03:06:21;99101.28;;;7.69;100.00
25722;BME280;13578;53.450;15.496;2023-03-22T03:09:25;99103.56;;;7.63;100.00
25722;BME280;13578;53.450;15.496;2023-03-22T03:12:27;99110.91;;;7.63;100.00
25722;BME280;13578;53.450;15.496;2023-03-22T03:15:28;99102.72;;;7.63;100.00
25722;BME280;13578;53.450;15.496;2023-03-22T03:21:56;99097.13;;;7.65;100.00
25722;BME280;13578;53.450;15.496;2023-03-22T03:31:42;99096.34;;;7.53;100.00
25722;BME280;13578;53.450;15.496;2023-03-22T03:34:48;99098.34;;;7.51;100.00
25722;BME280;13578;53.450;15.496;2023-03-22T03:38:15;99099.81;;;7.55;100.00
25722;BME280;13578;53.450;15.496;2023-03-22T03:41:21;99092.59;;;7.54;100.00
25722;BME280;13578;53.450;15.496;2023-03-22T03:44:23;99086.00;;;7.56;100.00
25722;BME280;13578;53.450;15.496;2023-03-22T03:47:24;99096.78;;;7.58;100.00
25722;BME280;13578;53.450;15.496;2023-03-22T03:50:28;99101.25;;;7.59;100.00
25722;BME280;13578;53.450;15.496;2023-03-22T03:53:29;99094.34;;;7.55;100.00
25722;BME280;13578;53.450;15.496;2023-03-22T03:56:30;99085.09;;;7.46;100.00
25722;BME280;13578;53.450;15.496;2023-03-22T03:59:31;99094.75;;;7.50;100.00
25722;BME280;13578;53.450;15.496;2023-03-22T04:02:31;99093.03;;;7.49;100.00
25722;BME280;13578;53.450;15.496;2023-03-22T04:05:32;99101.22;;;7.49;100.00
25722;BME280;13578;53.450;15.496;2023-03-22T04:08:33;99097.47;;;7.50;100.00
25722;BME280;13578;53.450;15.496;2023-03-22T04:11:34;99093.94;;;7.59;100.00
25722;BME280;13578;53.450;15.496;2023-03-22T04:14:34;99097.25;;;7.63;100.00
25722;BME280;13578;53.450;15.496;2023-03-22T04:17:35;99098.38;;;7.60;100.00
25722;BME280;13578;53.450;15.496;2023-03-22T04:20:37;99102.97;;;7.60;100.00
25722;BME280;13578;53.450;15.496;2023-03-22T04:23:41;99110.31;;;7.59;100.00
25722;BME280;13578;53.450;15.496;2023-03-22T04:26:41;99095.38;;;7.63;100.00
25722;BME280;13578;53.450;15.496;2023-03-22T04:29:42;99092.41;;;7.67;100.00
25722;BME280;13578;53.450;15.496;2023-03-22T04:32:48;99110.22;;;7.71;100.00
25722;BME280;13578;53.450;15.496;2023-03-22T04:35:49;99096.81;;;7.68;100.00
25722;BME280;13578;53.450;15.496;2023-03-22T04:38:56;99102.44;;;7.66;100.00
25722;BME280;13578;53.450;15.496;2023-03-22T04:41:57;99096.97;;;7.66;100.00
25722;BME280;13578;53.450;15.496;2023-03-22T04:44:57;99092.50;;;7.65;100.00
25722;BME280;13578;53.450;15.496;2023-03-22T04:47:58;99087.34;;;7.62;100.00
25722;BME280;13578;53.450;15.496;2023-03-22T04:50:59;99090.78;;;7.64;100.00
25722;BME280;13578;53.450;15.496;2023-03-22T04:54:03;99087.94;;;7.66;100.00
25722;BME280;13578;53.450;15.496;2023-03-22T04:57:04;99093.78;;;7.61;100.00
25722;BME280;13578;53.450;15.496;2023-03-22T05:00:05;99087.59;;;7.59;100.00
25722;BME280;13578;53.450;15.496;2023-03-22T05:03:07;99086.00;;;7.56;100.00
25722;BME280;13578;53.450;15.496;2023-03-22T05:06:09;99084.31;;;7.65;100.00
25722;BME280;13578;53.450;15.496;2023-03-22T05:09:10;99079.56;;;7.57;100.00
25722;BME280;13578;53.450;15.496;2023-03-22T05:12:10;99086.59;;;7.60;100.00
25722;BME280;13578;53.450;15.496;2023-03-22T05:15:11;99074.94;;;7.58;100.00
25722;BME280;13578;53.450;15.496;2023-03-22T05:18:12;99078.41;;;7.60;100.00
25722;BME280;13578;53.450;15.496;2023-03-22T05:21:16;99085.50;;;7.72;100.00
25722;BME280;13578;53.450;15.496;2023-03-22T05:24:17;99087.78;;;7.67;100.00
25722;BME280;13578;53.450;15.496;2023-03-22T05:27:17;99079.59;;;7.67;100.00
25722;BME280;13578;53.450;15.496;2023-03-22T05:30:31;99072.53;;;7.65;100.00
25722;BME280;13578;53.450;15.496;2023-03-22T05:33:31;99066.94;;;7.66;100.00
25722;BME280;13578;53.450;15.496;2023-03-22T05:36:33;99074.31;;;7.75;100.00
25722;BME280;13578;53.450;15.496;2023-03-22T05:39:35;99073.56;;;7.73;100.00
25722;BME280;13578;53.450;15.496;2023-03-22T05:42:36;99072.56;;;7.74;100.00
25722;BME280;13578;53.450;15.496;2023-03-22T05:45:36;99068.84;;;7.75;100.00
25722;BME280;13578;53.450;15.496;2023-03-22T05:48:38;99063.56;;;7.84;100.00
25722;BME280;13578;53.450;15.496;2023-03-22T05:51:39;99065.13;;;7.86;100.00
25722;BME280;13578;53.450;15.496;2023-03-22T05:54:40;99057.78;;;7.87;100.00
25722;BME280;13578;53.450;15.496;2023-03-22T05:57:41;99062.84;;;7.91;100.00
25722;BME280;13578;53.450;15.496;2023-03-22T06:00:42;99051.66;;;7.94;100.00
25722;BME280;13578;53.450;15.496;2023-03-22T06:03:43;99046.19;;;8.04;100.00
25722;BME280;13578;53.450;15.496;2023-03-22T06:06:43;99062.59;;;8.04;100.00
25722;BME280;13578;53.450;15.496;2023-03-22T06:09:44;99052.81;;;8.02;100.00
25722;BME280;13578;53.450;15.496;2023-03-22T06:12:45;99056.41;;;8.02;100.00
25722;BME280;13578;53.450;15.496;2023-03-22T06:15:46;99059.72;;;8.06;100.00
25722;BME280;13578;53.450;15.496;2023-03-22T06:18:46;99055.72;;;8.10;100.00
25722;BME280;13578;53.450;15.496;2023-03-22T06:21:47;99062.03;;;8.10;100.00
25722;BME280;13578;53.450;15.496;2023-03-22T06:24:48;99053.25;;;8.17;100.00
25722;BME280;13578;53.450;15.496;2023-03-22T06:27:48;99051.41;;;8.17;100.00
25722;BME280;13578;53.450;15.496;2023-03-22T06:30:49;99066.66;;;8.20;100.00
25722;BME280;13578;53.450;15.496;2023-03-22T06:33:50;99067.41;;;8.22;100.00
25722;BME280;13578;53.450;15.496;2023-03-22T06:36:51;99057.63;;;8.29;100.00
25722;BME280;13578;53.450;15.496;2023-03-22T06:39:52;99053.16;;;8.38;100.00
25722;BME280;13578;53.450;15.496;2023-03-22T06:42:53;99056.75;;;8.38;100.00
25722;BME280;13578;53.450;15.496;2023-03-22T06:45:54;99058.63;;;8.38;100.00
25722;BME280;13578;53.450;15.496;2023-03-22T06:48:56;99061.94;;;8.41;100.00
25722;BME280;13578;53.450;15.496;2023-03-22T06:51:57;99067.69;;;8.38;100.00
25722;BME280;13578;53.450;15.496;2023-03-22T06:54:57;99069.84;;;8.45;100.00
25722;BME280;13578;53.450;15.496;2023-03-22T06:57:59;99077.94;;;8.46;100.00
25722;BME280;13578;53.450;15.496;2023-03-22T07:00:59;99078.50;;;8.40;100.00
25722;BME280;13578;53.450;15.496;2023-03-22T07:04:00;99074.16;;;8.37;100.00
25722;BME280;13578;53.450;15.496;2023-03-22T07:07:01;99078.81;;;8.47;100.00
25722;BME280;13578;53.450;15.496;2023-03-22T07:10:02;99084.84;;;8.60;100.00
25722;BME280;13578;53.450;15.496;2023-03-22T07:13:03;99079.69;;;8.47;100.00
25722;BME280;13578;53.450;15.496;2023-03-22T07:16:04;99082.28;;;8.58;100.00
25722;BME280;13578;53.450;15.496;2023-03-22T07:19:05;99084.84;;;8.60;100.00
25722;BME280;13578;53.450;15.496;2023-03-22T07:22:06;99087.31;;;8.53;100.00
25722;BME280;13578;53.450;15.496;2023-03-22T07:25:07;99091.63;;;8.56;100.00
25722;BME280;13578;53.450;15.496;2023-03-22T07:28:07;99091.22;;;8.61;100.00
25722;BME280;13578;53.450;15.496;2023-03-22T07:31:11;99105.03;;;8.79;100.00
25722;BME280;13578;53.450;15.496;2023-03-22T07:34:13;99104.59;;;8.93;100.00
25722;BME280;13578;53.450;15.496;2023-03-22T07:37:13;99103.84;;;9.01;100.00
25722;BME280;13578;53.450;15.496;2023-03-22T07:40:14;99102.41;;;9.06;100.00
25722;BME280;13578;53.450;15.496;2023-03-22T07:43:15;99096.94;;;9.16;100.00
25722;BME280;13578;53.450;15.496;2023-03-22T07:46:15;99110.72;;;9.34;100.00
25722;BME280;13578;53.450;15.496;2023-03-22T07:49:19;99116.50;;;9.41;100.00
25722;BME280;13578;53.450;15.496;2023-03-22T07:52:19;99120.84;;;9.34;100.00
25722;BME280;13578;53.450;15.496;2023-03-22T07:55:20;99125.00;;;9.28;100.00
25722;BME280;13578;53.450;15.496;2023-03-22T07:58:21;99122.84;;;9.32;100.00
25722;BME280;13578;53.450;15.496;2023-03-22T08:01:21;99126.13;;;9.45;100.00
25722;BME280;13578;53.450;15.496;2023-03-22T08:04:22;99121.38;;;9.47;100.00
25722;BME280;13578;53.450;15.496;2023-03-22T08:07:22;99127.53;;;9.59;100.00
25722;BME280;13578;53.450;15.496;2023-03-22T08:10:24;99115.78;;;9.77;100.00
25722;BME280;13578;53.450;15.496;2023-03-22T08:13:25;99107.78;;;9.65;100.00
25722;BME280;13578;53.450;15.496;2023-03-22T08:16:27;99116.97;;;9.74;100.00
25722;BME280;13578;53.450;15.496;2023-03-22T08:19:27;99121.16;;;10.06;100.00
25722;BME280;13578;53.450;15.496;2023-03-22T08:22:28;99124.63;;;10.08;100.00
25722;BME280;13578;53.450;15.496;2023-03-22T08:25:29;99135.31;;;10.01;100.00
25722;BME280;13578;53.450;15.496;2023-03-22T08:28:30;99131.50;;;10.12;100.00
25722;BME280;13578;53.450;15.496;2023-03-22T08:31:31;99129.28;;;9.98;100.00
25722;BME280;13578;53.450;15.496;2023-03-22T08:34:38;99135.81;;;9.87;100.00
25722;BME280;13578;53.450;15.496;2023-03-22T08:37:39;99148.91;;;9.93;100.00
25722;BME280;13578;53.450;15.496;2023-03-22T08:40:41;99144.81;;;10.07;100.00
25722;BME280;13578;53.450;15.496;2023-03-22T08:43:41;99148.13;;;10.11;100.00
25722;BME280;13578;53.450;15.496;2023-03-22T08:46:42;99134.25;;;10.12;100.00
25722;BME280;13578;53.450;15.496;2023-03-22T08:49:43;99137.88;;;10.13;100.00
25722;BME280;13578;53.450;15.496;2023-03-22T08:52:44;99134.97;;;10.14;100.00
25722;BME280;13578;53.450;15.496;2023-03-22T08:55:45;99147.91;;;10.22;100.00
25722;BME280;13578;53.450;15.496;2023-03-22T08:58:46;99128.31;;;10.17;100.00
25722;BME280;13578;53.450;15.496;2023-03-22T09:01:46;99113.56;;;10.00;100.00
25722;BME280;13578;53.450;15.496;2023-03-22T09:04:47;99117.66;;;10.14;100.00
25722;BME280;13578;53.450;15.496;2023-03-22T09:07:51;99117.28;;;10.27;100.00
25722;BME280;13578;53.450;15.496;2023-03-22T09:10:51;99108.22;;;10.26;100.00
25722;BME280;13578;53.450;15.496;2023-03-22T09:13:52;99108.56;;;10.41;100.00
25722;BME280;13578;53.450;15.496;2023-03-22T09:16:53;99094.56;;;10.44;100.00
25722;BME280;13578;53.450;15.496;2023-03-22T09:19:53;99106.78;;;10.50;100.00
25722;BME280;13578;53.450;15.496;2023-03-22T09:22:54;99105.16;;;10.57;100.00
25722;BME280;13578;53.450;15.496;2023-03-22T09:25:59;99108.31;;;10.62;100.00
25722;BME280;13578;53.450;15.496;2023-03-22T09:28:59;99107.28;;;10.63;100.00
25722;BME280;13578;53.450;15.496;2023-03-22T09:32:00;99120.13;;;10.63;100.00
25722;BME280;13578;53.450;15.496;2023-03-22T09:35:01;99126.97;;;10.59;100.00
25722;BME280;13578;53.450;15.496;2023-03-22T09:38:02;99117.19;;;10.46;100.00
25722;BME280;13578;53.450;15.496;2023-03-22T09:41:17;99111.69;;;10.56;100.00
25722;BME280;13578;53.450;15.496;2023-03-22T09:44:27;99101.25;;;10.60;100.00
25722;BME280;13578;53.450;15.496;2023-03-22T09:47:37;99123.88;;;10.62;100.00
25722;BME280;13578;53.450;15.496;2023-03-22T09:50:44;99114.00;;;10.69;100.00
25722;BME280;13578;53.450;15.496;2023-03-22T09:53:46;99109.56;;;10.68;100.00
25722;BME280;13578;53.450;15.496;2023-03-22T10:00:10;99109.94;;;10.91;100.00
25722;BME280;13578;53.450;15.496;2023-03-22T10:06:24;99113.59;;;11.18;100.00
25722;BME280;13578;53.450;15.496;2023-03-22T10:09:37;99113.53;;;11.10;100.00
25722;BME280;13578;53.450;15.496;2023-03-22T10:12:49;99103.56;;;11.27;100.00
25722;BME280;13578;53.450;15.496;2023-03-22T10:15:57;99105.59;;;11.25;100.00
25722;BME280;13578;53.450;15.496;2023-03-22T10:19:04;99091.59;;;11.36;100.00
25722;BME280;13578;53.450;15.496;2023-03-22T10:22:09;99096.13;;;11.46;100.00
25722;BME280;13578;53.450;15.496;2023-03-22T10:25:17;99093.16;;;11.65;100.00
25722;BME280;13578;53.450;15.496;2023-03-22T10:28:25;99096.66;;;11.75;100.00
25722;BME280;13578;53.450;15.496;2023-03-22T10:31:29;99095.16;;;11.81;100.00
25722;BME280;13578;53.450;15.496;2023-03-22T10:34:30;99098.59;;;11.83;100.00
25722;BME280;13578;53.450;15.496;2023-03-22T10:37:33;99093.19;;;12.00;100.00
25722;BME280;13578;53.450;15.496;2023-03-22T10:40:35;99090.63;;;11.98;100.00
25722;BME280;13578;53.450;15.496;2023-03-22T10:43:40;99084.28;;;12.06;100.00
25722;BME280;13578;53.450;15.496;2023-03-22T10:46:42;99093.63;;;12.21;100.00
25722;BME280;13578;53.450;15.496;2023-03-22T10:49:50;99102.44;;;12.33;100.00
25722;BME280;13578;53.450;15.496;2023-03-22T10:53:56;99103.69;;;12.39;100.00
25722;BME280;13578;53.450;15.496;2023-03-22T10:56:26;99093.00;;;12.36;100.00
25722;BME280;13578;53.450;15.496;2023-03-22T10:59:46;99094.69;;;12.29;100.00
25722;BME280;13578;53.450;15.496;2023-03-22T11:02:52;99087.84;;;12.33;100.00
25722;BME280;13578;53.450;15.496;2023-03-22T11:06:16;99091.59;;;12.23;100.00
25722;BME280;13578;53.450;15.496;2023-03-22T11:09:21;99085.06;;;12.25;100.00
25722;BME280;13578;53.450;15.496;2023-03-22T11:12:23;99086.56;;;12.19;100.00
25722;BME280;13578;53.450;15.496;2023-03-22T11:15:26;99090.22;;;12.28;100.00
25722;BME280;13578;53.450;15.496;2023-03-22T11:18:29;99088.88;;;12.32;100.00
25722;BME280;13578;53.450;15.496;2023-03-22T11:21:32;99099.16;;;12.30;100.00
25722;BME280;13578;53.450;15.496;2023-03-22T11:24:33;99093.69;;;12.38;100.00
25722;BME280;13578;53.450;15.496;2023-03-22T11:27:34;99078.88;;;12.31;100.00
25722;BME280;13578;53.450;15.496;2023-03-22T11:30:36;99080.09;;;12.28;100.00
25722;BME280;13578;53.450;15.496;2023-03-22T11:33:52;99076.78;;;12.16;100.00
25722;BME280;13578;53.450;15.496;2023-03-22T11:36:54;99069.75;;;12.22;100.00
25722;BME280;13578;53.450;15.496;2023-03-22T11:40:00;99069.44;;;12.33;100.00
25722;BME280;13578;53.450;15.496;2023-03-22T11:43:16;99063.75;;;12.35;100.00
25722;BME280;13578;53.450;15.496;2023-03-22T11:46:19;99053.13;;;12.48;100.00
25722;BME280;13578;53.450;15.496;2023-03-22T11:49:23;99062.44;;;12.64;100.00
25722;BME280;13578;53.450;15.496;2023-03-22T11:52:26;99050.41;;;12.65;100.00
25722;BME280;13578;53.450;15.496;2023-03-22T11:55:29;99057.97;;;12.71;100.00
25722;BME280;13578;53.450;15.496;2023-03-22T12:01:40;99029.44;;;12.97;100.00
25722;BME280;13578;53.450;15.496;2023-03-22T12:04:46;99026.81;;;13.03;100.00
25722;BME280;13578;53.450;15.496;2023-03-22T12:07:51;99023.75;;;12.98;100.00
25722;BME280;13578;53.450;15.496;2023-03-22T12:10:57;99017.56;;;12.88;100.00
25722;BME280;13578;53.450;15.496;2023-03-22T12:17:37;99022.00;;;12.89;100.00
25722;BME280;13578;53.450;15.496;2023-03-22T12:20:48;99015.66;;;12.89;100.00
25722;BME280;13578;53.450;15.496;2023-03-22T12:23:53;99028.22;;;12.91;100.00
25722;BME280;13578;53.450;15.496;2023-03-22T12:27:03;99021.69;;;12.92;100.00
25722;BME280;13578;53.450;15.496;2023-03-22T12:30:15;99016.00;;;13.02;100.00
25722;BME280;13578;53.450;15.496;2023-03-22T12:33:57;99025.28;;;13.17;100.00
25722;BME280;13578;53.450;15.496;2023-03-22T12:36:56;99019.06;;;13.07;100.00
25722;BME280;13578;53.450;15.496;2023-03-22T12:40:24;99020.09;;;13.14;100.00
25722;BME280;13578;53.450;15.496;2023-03-22T12:43:53;99027.66;;;13.37;100.00
25722;BME280;13578;53.450;15.496;2023-03-22T12:46:58;99010.97;;;13.47;100.00
25722;BME280;13578;53.450;15.496;2023-03-22T12:50:19;99015.94;;;13.52;100.00
25722;BME280;13578;53.450;15.496;2023-03-22T12:53:25;98992.19;;;13.50;100.00
25722;BME280;13578;53.450;15.496;2023-03-22T12:56:48;99004.88;;;13.60;100.00
25722;BME280;13578;53.450;15.496;2023-03-22T12:59:49;98997.31;;;13.62;100.00
25722;BME280;13578;53.450;15.496;2023-03-22T13:13:14;99016.50;;;13.47;100.00
25722;BME280;13578;53.450;15.496;2023-03-22T13:16:19;99011.28;;;13.35;100.00
25722;BME280;13578;53.450;15.496;2023-03-22T13:19:29;99015.28;;;13.25;100.00
25722;BME280;13578;53.450;15.496;2023-03-22T13:25:38;99014.44;;;13.24;100.00
25722;BME280;13578;53.450;15.496;2023-03-22T13:28:59;98998.75;;;13.25;100.00
25722;BME280;13578;53.450;15.496;2023-03-22T13:32:04;99005.47;;;13.39;100.00
25722;BME280;13578;53.450;15.496;2023-03-22T13:35:18;98984.28;;;13.39;100.00
25722;BME280;13578;53.450;15.496;2023-03-22T13:38:26;98987.53;;;13.43;100.00
25722;BME280;13578;53.450;15.496;2023-03-22T13:41:37;98964.97;;;13.31;100.00
25722;BME280;13578;53.450;15.496;2023-03-22T13:44:39;98974.28;;;13.30;100.00
25722;BME280;13578;53.450;15.496;2023-03-22T13:48:02;98935.38;;;13.33;100.00
25722;BME280;13578;53.450;15.496;2023-03-22T13:57:39;98940.19;;;13.39;100.00
25722;BME280;13578;53.450;15.496;2023-03-22T14:00:48;98945.53;;;13.32;100.00
25722;BME280;13578;53.450;15.496;2023-03-22T14:03:51;98940.69;;;13.43;100.00
25722;BME280;13578;53.450;15.496;2023-03-22T14:06:56;98938.84;;;13.18;100.00
25722;BME280;13578;53.450;15.496;2023-03-22T14:10:04;98942.09;;;13.30;100.00
25722;BME280;13578;53.450;15.496;2023-03-22T14:16:43;98952.09;;;13.40;100.00
25722;BME280;13578;53.450;15.496;2023-03-22T14:19:44;98951.38;;;13.29;100.00
25722;BME280;13578;53.450;15.496;2023-03-22T14:23:02;98949.81;;;13.35;100.00
25722;BME280;13578;53.450;15.496;2023-03-22T14:26:07;98955.69;;;13.32;100.00
25722;BME280;13578;53.450;15.496;2023-03-22T14:29:17;98947.28;;;13.25;100.00
25722;BME280;13578;53.450;15.496;2023-03-22T14:32:25;98949.00;;;13.18;100.00
25722;BME280;13578;53.450;15.496;2023-03-22T14:35:41;98954.66;;;13.25;100.00
25722;BME280;13578;53.450;15.496;2023-03-22T14:38:44;98953.44;;;13.27;100.00
25722;BME280;13578;53.450;15.496;2023-03-22T14:41:56;98958.09;;;13.43;100.00
25722;BME280;13578;53.450;15.496;2023-03-22T14:45:02;98946.38;;;13.49;100.00
25722;BME280;13578;53.450;15.496;2023-03-22T14:48:23;98948.53;;;13.62;100.00
25722;BME280;13578;53.450;15.496;2023-03-22T14:51:39;98939.44;;;13.54;100.00
25722;BME280;13578;53.450;15.496;2023-03-22T14:54:42;98950.50;;;13.37;100.00
25722;BME280;13578;53.450;15.496;2023-03-22T14:57:51;98949.31;;;13.31;100.00
25722;BME280;13578;53.450;15.496;2023-03-22T15:01:02;98946.19;;;13.43;100.00
25722;BME280;13578;53.450;15.496;2023-03-22T15:04:10;98933.66;;;13.40;100.00
25722;BME280;13578;53.450;15.496;2023-03-22T15:07:16;98927.63;;;13.28;100.00
25722;BME280;13578;53.450;15.496;2023-03-22T15:10:20;98926.91;;;13.34;100.00
25722;BME280;13578;53.450;15.496;2023-03-22T15:13:22;98922.31;;;13.27;100.00
25722;BME280;13578;53.450;15.496;2023-03-22T15:16:25;98927.44;;;13.38;100.00
25722;BME280;13578;53.450;15.496;2023-03-22T15:19:34;98911.25;;;13.43;100.00
25722;BME280;13578;53.450;15.496;2023-03-22T15:22:36;98908.84;;;13.40;100.00
25722;BME280;13578;53.450;15.496;2023-03-22T15:25:38;98910.25;;;13.28;100.00
25722;BME280;13578;53.450;15.496;2023-03-22T15:28:49;98904.56;;;13.29;100.00
25722;BME280;13578;53.450;15.496;2023-03-22T15:31:54;98916.31;;;13.15;100.00
25722;BME280;13578;53.450;15.496;2023-03-22T15:34:56;98890.34;;;13.01;100.00
25722;BME280;13578;53.450;15.496;2023-03-22T15:37:57;98891.75;;;12.97;100.00
25722;BME280;13578;53.450;15.496;2023-03-22T15:41:16;98892.66;;;12.81;100.00
25722;BME280;13578;53.450;15.496;2023-03-22T15:44:27;98903.81;;;12.87;100.00
25722;BME280;13578;53.450;15.496;2023-03-22T15:47:41;98900.91;;;12.81;100.00
25722;BME280;13578;53.450;15.496;2023-03-22T15:50:47;98898.50;;;12.61;100.00
25722;BME280;13578;53.450;15.496;2023-03-22T15:53:49;98898.00;;;12.58;100.00
25722;BME280;13578;53.450;15.496;2023-03-22T15:56:50;98891.97;;;12.54;100.00
25722;BME280;13578;53.450;15.496;2023-03-22T15:59:53;98891.13;;;12.53;100.00
25722;BME280;13578;53.450;15.496;2023-03-22T16:03:12;98905.22;;;12.59;100.00
25722;BME280;13578;53.450;15.496;2023-03-22T16:06:13;98899.38;;;12.53;100.00
25722;BME280;13578;53.450;15.496;2023-03-22T16:09:14;98898.16;;;12.56;100.00
25722;BME280;13578;53.450;15.496;2023-03-22T16:12:17;98904.19;;;12.68;100.00
25722;BME280;13578;53.450;15.496;2023-03-22T16:15:31;98893.88;;;12.62;100.00
25722;BME280;13578;53.450;15.496;2023-03-22T16:18:32;98906.59;;;12.63;100.00
25722;BME280;13578;53.450;15.496;2023-03-22T16:21:34;98900.41;;;12.52;100.00
25722;BME280;13578;53.450;15.496;2023-03-22T16:24:35;98894.72;;;12.46;100.00
25722;BME280;13578;53.450;15.496;2023-03-22T16:27:36;98896.44;;;12.47;100.00
25722;BME280;13578;53.450;15.496;2023-03-22T16:30:40;98909.50;;;12.45;100.00
25722;BME280;13578;53.450;15.496;2023-03-22T16:33:42;98909.34;;;12.38;100.00
25722;BME280;13578;53.450;15.496;2023-03-22T16:36:44;98905.56;;;12.39;100.00
25722;BME280;13578;53.450;15.496;2023-03-22T16:39:45;98908.34;;;12.39;100.00
25722;BME280;13578;53.450;15.496;2023-03-22T16:42:46;98907.97;;;12.34;100.00
25722;BME280;13578;53.450;15.496;2023-03-22T16:45:47;98905.91;;;12.36;100.00
25722;BME280;13578;53.450;15.496;2023-03-22T16:48:48;98912.09;;;12.38;100.00
25722;BME280;13578;53.450;15.496;2023-03-22T16:51:49;98912.28;;;12.36;100.00
25722;BME280;13578;53.450;15.496;2023-03-22T16:54:52;98916.25;;;12.26;100.00
25722;BME280;13578;53.450;15.496;2023-03-22T16:57:53;98911.41;;;12.19;100.00
25722;BME280;13578;53.450;15.496;2023-03-22T17:00:54;98911.56;;;12.10;100.00
25722;BME280;13578;53.450;15.496;2023-03-22T17:03:55;98920.50;;;12.12;100.00
25722;BME280;13578;53.450;15.496;2023-03-22T17:06:55;98923.09;;;12.30;100.00
25722;BME280;13578;53.450;15.496;2023-03-22T17:09:56;98922.91;;;12.23;100.00